createdAt,value
2023-03-10T00:01:28.332Z,2.03
2023-03-10T00:03:57.845Z,2.03
2023-03-10T00:06:28.222Z,1.95
2023-03-10T00:08:56.313Z,1.91
2023-03-10T00:11:23.461Z,1.84
2023-03-10T00:13:50.399Z,1.79
2023-03-10T00:16:24.271Z,1.99
2023-03-10T00:18:51.385Z,2.06
2023-03-10T00:21:28.260Z,1.99
2023-03-10T00:23:55.491Z,1.99
2023-03-10T00:26:24.128Z,2.05
2023-03-10T00:28:51.106Z,1.93
2023-03-10T00:31:22.532Z,2.03
2023-03-10T00:33:50.727Z,1.87
2023-03-10T00:36:26.394Z,1.91
2023-03-10T00:38:54.969Z,1.97
2023-03-10T00:41:30.727Z,1.94
2023-03-10T00:43:59.006Z,1.78
2023-03-10T00:46:26.927Z,1.96
2023-03-10T00:48:54.409Z,1.83
2023-03-10T00:51:22.090Z,1.91
2023-03-10T00:53:50.207Z,2.02
2023-03-10T00:56:21.677Z,1.99
2023-03-10T00:58:53.380Z,2.04
2023-03-10T01:01:40.123Z,2.03
2023-03-10T01:04:16.122Z,2.07
2023-03-10T01:06:44.581Z,1.95
2023-03-10T01:09:11.534Z,1.96
2023-03-10T01:11:38.477Z,1.98
2023-03-10T01:14:08.735Z,2.04
2023-03-10T01:16:35.845Z,1.95
2023-03-10T01:19:02.766Z,1.76
2023-03-10T01:21:33.300Z,1.97
2023-03-10T01:24:00.937Z,2.01
2023-03-10T01:26:28.820Z,1.90
2023-03-10T01:28:55.918Z,2.04
2023-03-10T01:31:23.842Z,2.07
2023-03-10T01:33:50.890Z,2.01
2023-03-10T01:36:22.703Z,2.09
2023-03-10T01:38:50.194Z,1.93
2023-03-10T01:41:17.788Z,1.81
2023-03-10T01:43:51.620Z,2.10
2023-03-10T01:46:47.237Z,1.95
2023-03-10T01:49:44.576Z,2.05
2023-03-10T01:52:18.432Z,2.00
2023-03-10T01:54:51.171Z,1.98
2023-03-10T01:57:24.875Z,1.74
2023-03-10T01:59:52.725Z,1.85
2023-03-10T02:02:20.476Z,1.69
2023-03-10T02:04:49.214Z,1.89
2023-03-10T02:07:29.059Z,1.77
2023-03-10T02:09:56.835Z,1.84
2023-03-10T02:12:23.850Z,1.80
2023-03-10T02:14:53.452Z,1.82
2023-03-10T02:17:23.832Z,1.83
2023-03-10T02:19:59.585Z,1.84
2023-03-10T02:22:27.133Z,1.57
2023-03-10T02:25:11.430Z,1.78
2023-03-10T02:27:40.238Z,1.82
2023-03-10T02:30:23.515Z,1.67
2023-03-10T02:32:56.303Z,1.76
2023-03-10T02:35:24.282Z,1.81
2023-03-10T02:37:56.652Z,1.93
2023-03-10T02:40:40.391Z,1.94
2023-03-10T02:43:13.421Z,1.92
2023-03-10T02:45:44.630Z,1.89
2023-03-10T02:48:19.389Z,1.79
2023-03-10T02:50:47.796Z,1.60
2023-03-10T02:53:23.910Z,1.91
2023-03-10T02:55:51.772Z,1.98
2023-03-10T02:58:20.737Z,1.92
2023-03-10T03:00:49.656Z,2.00
2023-03-10T03:03:20.086Z,1.94
2023-03-10T03:05:49.477Z,1.87
2023-03-10T03:08:18.416Z,1.92
2023-03-10T03:10:46.113Z,1.99
2023-03-10T03:13:13.406Z,1.94
2023-03-10T03:15:40.807Z,1.87
2023-03-10T03:18:08.332Z,1.94
2023-03-10T03:20:37.982Z,1.96
2023-03-10T03:23:05.663Z,1.93
2023-03-10T03:25:37.755Z,1.96
2023-03-10T03:28:08.389Z,2.05
2023-03-10T03:30:36.374Z,1.80
2023-03-10T03:33:06.804Z,2.00
2023-03-10T03:35:36.408Z,1.92
2023-03-10T03:38:05.007Z,1.85
2023-03-10T03:40:33.654Z,2.01
2023-03-10T03:43:01.926Z,1.92
2023-03-10T03:45:31.736Z,2.04
2023-03-10T03:47:59.978Z,1.84
2023-03-10T03:50:28.878Z,1.99
2023-03-10T03:53:17.942Z,1.29
2023-03-10T03:55:51.238Z,2.06
2023-03-10T03:58:20.567Z,1.92
2023-03-10T04:00:50.424Z,1.95
2023-03-10T04:03:18.832Z,2.14
2023-03-10T04:05:46.956Z,2.07
2023-03-10T04:08:14.237Z,2.01
2023-03-10T04:10:41.358Z,2.23
2023-03-10T04:13:08.385Z,2.09
2023-03-10T04:15:35.878Z,2.15
2023-03-10T04:18:02.828Z,2.23
2023-03-10T04:20:29.876Z,2.09
2023-03-10T04:22:57.038Z,2.15
2023-03-10T04:25:29.332Z,2.07
2023-03-10T04:27:58.241Z,2.29
2023-03-10T04:30:29.307Z,2.28
2023-03-10T04:32:59.695Z,2.34
2023-03-10T04:35:28.861Z,2.44
2023-03-10T04:37:56.292Z,2.33
2023-03-10T04:40:24.962Z,2.30
2023-03-10T04:42:53.526Z,2.32
2023-03-10T04:45:20.508Z,2.38
2023-03-10T04:47:47.485Z,2.38
2023-03-10T04:50:17.457Z,2.19
2023-03-10T04:52:46.642Z,2.27
2023-03-10T04:55:14.417Z,2.39
2023-03-10T04:57:42.209Z,2.39
2023-03-10T05:00:12.671Z,2.33
2023-03-10T05:02:41.103Z,2.45
2023-03-10T05:05:09.436Z,2.29
2023-03-10T05:07:39.054Z,2.46
2023-03-10T05:10:06.927Z,2.46
2023-03-10T05:12:34.489Z,2.41
2023-03-10T05:15:01.512Z,2.40
2023-03-10T05:17:29.408Z,2.35
2023-03-10T05:19:57.924Z,2.46
2023-03-10T05:22:25.595Z,2.52
2023-03-10T05:24:52.996Z,2.42
2023-03-10T05:27:21.889Z,2.45
2023-03-10T05:29:55.557Z,2.70
2023-03-10T05:32:26.000Z,2.69
2023-03-10T05:34:53.429Z,2.70
2023-03-10T05:37:20.422Z,2.78
2023-03-10T05:39:48.173Z,2.71
2023-03-10T05:42:19.638Z,2.67
2023-03-10T05:44:46.596Z,2.53
2023-03-10T05:47:14.511Z,2.50
2023-03-10T05:49:41.420Z,2.40
2023-03-10T05:52:08.873Z,2.46
2023-03-10T05:54:37.393Z,2.52
2023-03-10T05:57:04.997Z,2.36
2023-03-10T05:59:32.430Z,2.52
2023-03-10T06:01:59.487Z,2.51
2023-03-10T06:04:28.396Z,2.35
2023-03-10T06:06:56.084Z,2.40
2023-03-10T06:09:22.976Z,2.52
2023-03-10T06:11:50.181Z,2.60
2023-03-10T06:14:17.107Z,2.35
2023-03-10T06:16:49.305Z,2.58
2023-03-10T06:19:16.305Z,2.37
2023-03-10T06:21:43.315Z,2.55
2023-03-10T06:24:10.317Z,2.65
2023-03-10T06:26:37.385Z,2.75
2023-03-10T06:29:05.300Z,2.76
2023-03-10T06:31:32.754Z,2.77
2023-03-10T06:34:01.524Z,2.74
2023-03-10T06:36:31.748Z,2.67
2023-03-10T06:38:58.861Z,2.59
2023-03-10T06:41:27.924Z,2.64
2023-03-10T06:43:55.079Z,2.67
2023-03-10T06:46:22.092Z,2.47
2023-03-10T06:48:50.014Z,2.65
2023-03-10T06:51:19.853Z,2.45
2023-03-10T06:53:47.577Z,2.40
2023-03-10T06:56:20.649Z,2.41
2023-03-10T06:58:48.736Z,2.63
2023-03-10T07:01:32.358Z,2.63
2023-03-10T07:04:01.275Z,2.73
2023-03-10T07:06:29.411Z,2.64
2023-03-10T07:08:56.691Z,2.59
2023-03-10T07:11:25.552Z,2.79
2023-03-10T07:13:52.685Z,2.65
2023-03-10T07:16:19.768Z,2.78
2023-03-10T07:18:47.011Z,2.87
2023-03-10T07:21:20.109Z,2.89
2023-03-10T07:23:47.103Z,2.96
2023-03-10T07:26:16.326Z,2.92
2023-03-10T07:28:43.227Z,2.83
2023-03-10T07:31:13.830Z,3.00
2023-03-10T07:33:41.126Z,2.80
2023-03-10T07:36:12.905Z,2.97
2023-03-10T07:38:40.486Z,2.75
2023-03-10T07:41:15.354Z,3.13
2023-03-10T07:43:42.561Z,3.16
2023-03-10T07:46:13.390Z,3.53
2023-03-10T07:48:40.855Z,3.68
2023-03-10T07:51:07.962Z,3.91
2023-03-10T07:53:35.444Z,4.13
2023-03-10T07:56:07.858Z,4.34
2023-03-10T07:58:35.638Z,4.30
2023-03-10T08:01:02.899Z,4.49
2023-03-10T08:03:30.074Z,4.69
2023-03-10T08:05:57.266Z,4.77
2023-03-10T08:08:24.231Z,4.94
2023-03-10T08:11:00.123Z,4.86
2023-03-10T08:13:27.707Z,4.83
2023-03-10T08:15:54.730Z,4.75
2023-03-10T08:18:23.370Z,4.73
2023-03-10T08:20:50.279Z,4.80
2023-03-10T08:23:17.311Z,4.98
2023-03-10T08:25:44.259Z,4.97
2023-03-10T08:28:11.143Z,4.93
2023-03-10T08:30:49.045Z,4.69
2023-03-10T08:33:28.620Z,4.43
2023-03-10T08:36:12.152Z,4.27
2023-03-10T08:38:39.749Z,4.10
2023-03-10T08:41:18.048Z,4.07
2023-03-10T08:43:47.803Z,3.84
2023-03-10T08:46:16.997Z,3.89
2023-03-10T08:48:44.048Z,3.62
2023-03-10T08:51:15.198Z,3.45
2023-03-10T08:53:44.534Z,3.78
2023-03-10T08:56:11.533Z,3.70
2023-03-10T08:58:38.669Z,3.59
2023-03-10T09:01:09.162Z,3.81
2023-03-10T09:03:38.479Z,3.73
2023-03-10T09:06:06.729Z,3.73
2023-03-10T09:08:33.755Z,3.62
2023-03-10T09:11:01.537Z,3.52
2023-03-10T09:13:28.448Z,3.55
2023-03-10T09:15:55.334Z,3.65
2023-03-10T09:18:22.348Z,3.64
2023-03-10T09:20:49.626Z,3.59
2023-03-10T09:23:17.439Z,3.80
2023-03-10T09:25:44.572Z,3.81
2023-03-10T09:28:12.102Z,3.66
2023-03-10T09:30:41.622Z,3.59
2023-03-10T09:33:21.514Z,3.41
2023-03-10T09:36:06.058Z,3.61
2023-03-10T09:38:34.164Z,3.64
2023-03-10T09:41:26.407Z,3.74
2023-03-10T09:44:26.873Z,3.66
2023-03-10T09:47:12.315Z,3.67
2023-03-10T09:50:11.092Z,3.51
2023-03-10T09:52:45.850Z,3.62
2023-03-10T09:55:23.790Z,3.64
2023-03-10T09:57:54.905Z,3.66
2023-03-10T10:00:33.436Z,3.53
2023-03-10T10:03:46.339Z,3.68
2023-03-10T10:06:44.238Z,3.78
2023-03-10T10:09:32.822Z,3.70
2023-03-10T10:12:15.711Z,3.79
2023-03-10T10:14:56.585Z,3.62
2023-03-10T10:18:05.514Z,3.63
2023-03-10T10:20:58.672Z,3.76
2023-03-10T10:23:47.689Z,3.81
2023-03-10T10:26:21.174Z,3.87
2023-03-10T10:28:58.294Z,3.86
2023-03-10T10:31:29.583Z,3.65
2023-03-10T10:34:00.820Z,3.92
2023-03-10T10:36:32.849Z,4.00
2023-03-10T10:39:00.410Z,3.94
2023-03-10T10:41:35.158Z,3.80
2023-03-10T10:44:15.998Z,3.90
2023-03-10T10:46:56.595Z,3.85
2023-03-10T10:49:27.506Z,3.88
2023-03-10T10:52:10.111Z,3.89
2023-03-10T10:54:43.690Z,3.86
2023-03-10T10:57:24.171Z,3.93
2023-03-10T10:59:53.507Z,3.99
2023-03-10T11:02:33.278Z,3.94
2023-03-10T11:05:12.477Z,3.95
2023-03-10T11:07:39.458Z,3.91
2023-03-10T11:10:18.202Z,3.95
2023-03-10T11:13:06.409Z,3.81
2023-03-10T11:15:57.419Z,3.96
2023-03-10T11:18:44.811Z,4.01
2023-03-10T11:21:23.805Z,3.96
2023-03-10T11:24:03.179Z,4.03
2023-03-10T11:26:37.535Z,3.90
2023-03-10T11:29:16.124Z,4.06
2023-03-10T11:32:19.375Z,4.06
2023-03-10T11:34:51.621Z,4.09
2023-03-10T11:37:32.194Z,4.11
2023-03-10T11:40:19.844Z,4.13
2023-03-10T11:43:17.420Z,4.08
2023-03-10T11:45:55.460Z,4.09
2023-03-10T11:48:53.235Z,4.16
2023-03-10T11:51:58.194Z,4.12
2023-03-10T11:54:31.936Z,4.26
2023-03-10T11:57:02.350Z,4.18
2023-03-10T11:59:35.634Z,4.27
2023-03-10T12:02:18.245Z,4.19
2023-03-10T12:05:20.994Z,4.13
2023-03-10T12:07:53.279Z,3.90
2023-03-10T12:10:22.018Z,3.94
2023-03-10T12:12:51.737Z,3.94
2023-03-10T12:15:31.254Z,4.00
2023-03-10T12:17:58.856Z,3.99
2023-03-10T12:20:31.173Z,3.98
2023-03-10T12:23:11.676Z,4.06
2023-03-10T12:25:38.572Z,4.10
2023-03-10T12:28:17.706Z,4.11
2023-03-10T12:31:10.516Z,3.97
2023-03-10T12:33:45.154Z,4.06
2023-03-10T12:36:37.656Z,4.01
2023-03-10T12:39:40.977Z,4.06
2023-03-10T12:42:37.194Z,4.12
2023-03-10T12:45:29.376Z,4.17
2023-03-10T12:48:15.218Z,4.25
2023-03-10T12:50:47.064Z,4.29
2023-03-10T12:53:47.727Z,4.21
2023-03-10T12:56:14.594Z,4.19
2023-03-10T12:58:47.762Z,4.13
2023-03-10T13:01:22.780Z,3.99
2023-03-10T13:03:53.322Z,4.08
2023-03-10T13:06:29.143Z,3.99
2023-03-10T13:09:19.917Z,4.06
2023-03-10T13:11:56.851Z,4.06
2023-03-10T13:14:34.013Z,3.98
2023-03-10T13:17:03.056Z,3.82
2023-03-10T13:19:36.690Z,3.98
2023-03-10T13:22:06.714Z,3.62
2023-03-10T13:24:37.340Z,3.77
2023-03-10T13:27:14.119Z,3.89
2023-03-10T13:30:05.545Z,3.89
2023-03-10T13:32:33.508Z,3.96
2023-03-10T13:35:22.104Z,4.03
2023-03-10T13:38:24.710Z,3.94
2023-03-10T13:40:57.619Z,4.10
2023-03-10T13:43:33.459Z,4.08
2023-03-10T13:46:02.219Z,4.13
2023-03-10T13:48:31.723Z,4.14
2023-03-10T13:51:23.801Z,4.17
2023-03-10T13:53:55.104Z,4.16
2023-03-10T13:56:35.053Z,4.17
2023-03-10T13:59:03.559Z,4.13
2023-03-10T14:01:45.052Z,4.18
2023-03-10T14:04:18.318Z,4.10
2023-03-10T14:06:45.979Z,4.10
2023-03-10T14:09:23.377Z,4.01
2023-03-10T14:11:51.205Z,4.07
2023-03-10T14:14:33.667Z,4.21
2023-03-10T14:17:06.931Z,4.15
2023-03-10T14:19:41.806Z,4.24
2023-03-10T14:22:28.078Z,4.37
2023-03-10T14:24:56.594Z,4.28
2023-03-10T14:27:24.685Z,4.38
2023-03-10T14:29:55.691Z,4.34
2023-03-10T14:32:24.995Z,4.14
2023-03-10T14:34:52.058Z,4.20
2023-03-10T14:37:18.987Z,4.20
2023-03-10T14:39:46.092Z,4.17
2023-03-10T14:42:28.981Z,4.22
2023-03-10T14:44:58.685Z,4.20
2023-03-10T14:47:25.901Z,4.15
2023-03-10T14:49:53.127Z,4.11
2023-03-10T14:52:20.330Z,3.94
2023-03-10T14:54:47.364Z,3.95
2023-03-10T14:57:19.319Z,3.79
2023-03-10T14:59:46.658Z,3.86
2023-03-10T15:02:24.549Z,3.88
2023-03-10T15:04:52.029Z,3.93
2023-03-10T15:07:19.011Z,3.76
2023-03-10T15:09:46.512Z,3.78
2023-03-10T15:12:18.706Z,3.92
2023-03-10T15:14:54.984Z,3.79
2023-03-10T15:17:24.324Z,3.86
2023-03-10T15:19:51.210Z,3.95
2023-03-10T15:22:18.699Z,3.98
2023-03-10T15:24:45.696Z,3.95
2023-03-10T15:27:13.674Z,3.92
2023-03-10T15:29:40.629Z,3.83
2023-03-10T15:32:07.829Z,3.94
2023-03-10T15:34:34.769Z,3.81
2023-03-10T15:37:01.672Z,3.84
2023-03-10T15:39:31.952Z,3.74
2023-03-10T15:42:00.336Z,3.82
2023-03-10T15:44:27.210Z,3.75
2023-03-10T15:46:55.274Z,3.71
2023-03-10T15:49:22.497Z,3.78
2023-03-10T15:51:49.568Z,3.55
2023-03-10T15:54:16.509Z,3.77
2023-03-10T15:56:43.528Z,3.85
2023-03-10T15:59:10.704Z,3.82
2023-03-10T16:01:37.744Z,3.81
2023-03-10T16:04:05.884Z,3.78
2023-03-10T16:06:33.897Z,3.84
2023-03-10T16:09:01.133Z,3.67
2023-03-10T16:11:28.144Z,3.68
2023-03-10T16:13:55.077Z,3.73
2023-03-10T16:16:23.668Z,3.62
2023-03-10T16:18:52.223Z,3.62
2023-03-10T16:21:20.144Z,3.40
2023-03-10T16:23:47.080Z,3.26
2023-03-10T16:26:20.861Z,3.12
2023-03-10T16:28:53.462Z,2.90
2023-03-10T16:31:23.670Z,3.00
2023-03-10T16:33:51.670Z,2.97
2023-03-10T16:36:23.270Z,2.90
2023-03-10T16:38:51.881Z,2.68
2023-03-10T16:41:19.332Z,2.74
2023-03-10T16:43:46.970Z,2.88
2023-03-10T16:46:25.549Z,2.86
2023-03-10T16:48:54.745Z,2.75
2023-03-10T16:51:42.959Z,2.92
2023-03-10T16:54:20.521Z,2.85
2023-03-10T16:56:50.907Z,2.77
2023-03-10T16:59:22.014Z,2.82
2023-03-10T17:01:50.446Z,2.67
2023-03-10T17:04:17.906Z,2.73
2023-03-10T17:06:45.822Z,2.68
2023-03-10T17:09:14.506Z,2.47
2023-03-10T17:11:46.534Z,2.47
2023-03-10T17:14:15.724Z,2.45
2023-03-10T17:16:44.689Z,2.34
2023-03-10T17:19:29.012Z,2.34
2023-03-10T17:21:57.310Z,2.24
2023-03-10T17:24:25.260Z,2.21
2023-03-10T17:26:52.295Z,2.22
2023-03-10T17:29:19.216Z,2.13
2023-03-10T17:31:50.277Z,2.23
2023-03-10T17:34:18.591Z,2.18
2023-03-10T17:36:46.681Z,2.21
2023-03-10T17:39:20.039Z,2.16
2023-03-10T17:41:47.903Z,2.16
2023-03-10T17:44:15.862Z,2.10
2023-03-10T17:46:42.926Z,2.12
2023-03-10T17:49:13.090Z,2.00
2023-03-10T17:51:43.558Z,2.01
2023-03-10T17:54:20.149Z,1.92
2023-03-10T17:56:47.726Z,1.99
2023-03-10T17:59:15.221Z,1.92
2023-03-10T18:01:44.418Z,1.62
2023-03-10T18:04:12.092Z,1.83
2023-03-10T18:06:39.278Z,1.75
2023-03-10T18:09:09.263Z,1.87
2023-03-10T18:11:36.977Z,1.85
2023-03-10T18:14:04.968Z,1.68
2023-03-10T18:16:39.462Z,1.80
2023-03-10T18:19:10.541Z,1.68
2023-03-10T18:21:38.611Z,1.68
2023-03-10T18:24:06.488Z,1.64
2023-03-10T18:26:33.756Z,1.55
2023-03-10T18:29:00.660Z,1.55
2023-03-10T18:31:31.812Z,1.51
2023-03-10T18:33:59.576Z,1.63
2023-03-10T18:36:28.439Z,1.60
2023-03-10T18:38:56.060Z,1.55
2023-03-10T18:41:26.326Z,1.19
2023-03-10T18:43:53.920Z,1.47
2023-03-10T18:46:22.109Z,1.43
2023-03-10T18:48:56.183Z,1.29
2023-03-10T18:51:25.688Z,1.56
2023-03-10T18:53:55.489Z,1.52
2023-03-10T18:56:25.102Z,1.73
2023-03-10T18:58:52.008Z,1.68
2023-03-10T19:01:18.984Z,1.54
2023-03-10T19:03:45.917Z,1.53
2023-03-10T19:06:12.811Z,1.44
2023-03-10T19:08:41.408Z,1.34
2023-03-10T19:11:09.154Z,1.35
2023-03-10T19:13:40.378Z,1.43
2023-03-10T19:16:09.373Z,1.32
2023-03-10T19:18:36.868Z,1.34
2023-03-10T19:21:04.870Z,1.31
2023-03-10T19:23:35.108Z,1.35
2023-03-10T19:26:06.006Z,1.26
2023-03-10T19:28:33.162Z,1.24
2023-03-10T19:31:00.161Z,1.26
2023-03-10T19:33:27.756Z,1.16
2023-03-10T19:36:03.062Z,1.13
2023-03-10T19:38:30.304Z,1.19
2023-03-10T19:40:57.549Z,1.18
2023-03-10T19:43:24.437Z,1.25
2023-03-10T19:45:51.349Z,1.29
2023-03-10T19:48:18.257Z,1.27
2023-03-10T19:50:45.191Z,1.19
2023-03-10T19:53:15.157Z,1.07
2023-03-10T19:55:43.456Z,1.12
2023-03-10T19:58:10.371Z,1.14
2023-03-10T20:00:37.383Z,1.04
2023-03-10T20:03:04.493Z,1.13
2023-03-10T20:05:31.542Z,1.29
2023-03-10T20:07:58.526Z,1.17
2023-03-10T20:10:25.448Z,1.13
2023-03-10T20:12:52.550Z,1.14
2023-03-10T20:15:19.724Z,1.08
2023-03-10T20:17:46.786Z,1.13
2023-03-10T20:20:15.276Z,1.17
2023-03-10T20:22:45.577Z,1.18
2023-03-10T20:25:24.680Z,1.19
2023-03-10T20:27:54.053Z,1.19
2023-03-10T20:30:27.717Z,1.11
2023-03-10T20:32:55.781Z,1.02
2023-03-10T20:35:23.531Z,1.02
2023-03-10T20:37:50.483Z,0.96
2023-03-10T20:40:23.821Z,1.07
2023-03-10T20:42:52.681Z,1.17
2023-03-10T20:45:19.881Z,1.25
2023-03-10T20:47:47.981Z,1.29
2023-03-10T20:50:16.093Z,1.21
2023-03-10T20:52:43.832Z,1.45
2023-03-10T20:55:23.819Z,1.40
2023-03-10T20:57:53.414Z,1.33
2023-03-10T21:00:24.697Z,1.17
2023-03-10T21:02:53.659Z,1.24
2023-03-10T21:05:21.737Z,1.16
2023-03-10T21:07:49.905Z,1.10
2023-03-10T21:10:17.582Z,1.23
2023-03-10T21:12:45.096Z,1.22
2023-03-10T21:15:16.007Z,1.16
2023-03-10T21:17:43.933Z,1.34
2023-03-10T21:20:15.515Z,1.17
2023-03-10T21:22:42.668Z,1.19
2023-03-10T21:25:16.826Z,1.22
2023-03-10T21:27:48.193Z,1.17
2023-03-10T21:30:17.106Z,1.25
2023-03-10T21:32:44.154Z,1.21
2023-03-10T21:35:13.633Z,1.15
2023-03-10T21:37:42.504Z,1.20
2023-03-10T21:40:13.855Z,1.12
2023-03-10T21:42:41.821Z,1.09
2023-03-10T21:45:11.963Z,1.22
2023-03-10T21:47:39.022Z,1.21
2023-03-10T21:50:06.796Z,1.04
2023-03-10T21:52:33.709Z,1.09
2023-03-10T21:55:04.452Z,1.12
2023-03-10T21:57:31.422Z,1.16
2023-03-10T21:59:58.419Z,1.21
2023-03-10T22:02:28.823Z,1.32
2023-03-10T22:04:56.629Z,1.41
2023-03-10T22:07:23.611Z,1.42
2023-03-10T22:09:50.721Z,1.30
2023-03-10T22:12:18.588Z,1.18
2023-03-10T22:14:56.243Z,1.59
2023-03-10T22:17:25.082Z,1.46
2023-03-10T22:19:54.736Z,1.49
2023-03-10T22:22:22.859Z,1.43
2023-03-10T22:24:50.700Z,1.32
2023-03-10T22:27:17.744Z,1.28
2023-03-10T22:29:45.836Z,1.31
2023-03-10T22:32:12.884Z,1.50
2023-03-10T22:34:39.900Z,1.50
2023-03-10T22:37:06.787Z,1.59
2023-03-10T22:39:33.824Z,1.83
2023-03-10T22:42:00.805Z,1.69
2023-03-10T22:44:27.901Z,1.49
2023-03-10T22:46:54.970Z,1.56
2023-03-10T22:49:21.948Z,1.48
2023-03-10T22:51:48.892Z,1.63
2023-03-10T22:54:15.834Z,1.56
2023-03-10T22:56:42.817Z,1.50
2023-03-10T22:59:09.688Z,1.59
2023-03-10T23:01:36.754Z,1.56
2023-03-10T23:04:03.696Z,1.62
2023-03-10T23:06:31.833Z,1.59
2023-03-10T23:08:58.839Z,1.44
2023-03-10T23:11:26.333Z,1.41
2023-03-10T23:13:53.416Z,1.41
2023-03-10T23:16:20.432Z,1.29
2023-03-10T23:18:47.435Z,1.38
2023-03-10T23:21:14.464Z,1.23
2023-03-10T23:23:43.728Z,1.28
2023-03-10T23:26:11.665Z,1.36
2023-03-10T23:28:39.001Z,1.37
2023-03-10T23:31:07.183Z,1.41
2023-03-10T23:33:34.753Z,1.37
2023-03-10T23:36:01.656Z,1.14
2023-03-10T23:38:28.692Z,1.32
2023-03-10T23:40:55.688Z,1.32
2023-03-10T23:43:23.148Z,1.26
2023-03-10T23:45:50.470Z,1.34
2023-03-10T23:48:19.088Z,1.39
2023-03-10T23:50:48.068Z,1.35
2023-03-10T23:53:17.993Z,1.49
2023-03-10T23:55:46.704Z,1.41
2023-03-10T23:58:17.238Z,1.38
